createdAt,value
2022-11-27T00:01:01.477Z,0.00
2022-11-27T00:02:01.253Z,0.00
2022-11-27T00:03:01.425Z,0.00
2022-11-27T00:04:01.428Z,0.00
2022-11-27T00:05:01.336Z,0.00
2022-11-27T00:07:01.695Z,0.00
2022-11-27T00:09:01.467Z,0.00
2022-11-27T00:10:01.478Z,0.00
2022-11-27T00:11:01.508Z,0.00
2022-11-27T00:12:01.536Z,0.00
2022-11-27T00:13:01.857Z,0.00
2022-11-27T00:14:01.591Z,0.00
2022-11-27T00:15:01.615Z,0.00
2022-11-27T00:16:01.747Z,0.00
2022-11-27T00:17:01.673Z,0.00
2022-11-27T00:18:01.696Z,0.00
2022-11-27T00:19:01.726Z,0.00
2022-11-27T00:20:02.056Z,0.00
2022-11-27T00:21:01.790Z,0.00
2022-11-27T00:22:01.811Z,0.00
2022-11-27T00:25:01.910Z,0.00
2022-11-27T00:26:01.922Z,0.00
2022-11-27T00:27:01.950Z,0.00
2022-11-27T00:28:01.982Z,0.00
2022-11-27T00:29:02.009Z,0.00
2022-11-27T00:30:02.032Z,0.00
2022-11-27T00:31:02.114Z,0.00
2022-11-27T00:32:02.119Z,0.00
2022-11-27T00:33:02.417Z,0.00
2022-11-27T00:34:02.163Z,0.00
2022-11-27T00:35:02.168Z,0.00
2022-11-27T00:36:02.235Z,0.00
2022-11-27T00:37:02.226Z,0.00
2022-11-27T00:38:02.334Z,0.00
2022-11-27T00:39:02.285Z,0.00
2022-11-27T00:40:02.310Z,0.00
2022-11-27T00:41:02.386Z,0.00
2022-11-27T00:42:02.402Z,0.00
2022-11-27T00:44:02.424Z,0.00
2022-11-27T00:45:02.450Z,0.00
2022-11-27T00:46:02.823Z,0.00
2022-11-27T00:47:02.583Z,0.00
2022-11-27T00:48:02.551Z,0.00
2022-11-27T00:49:02.560Z,0.00
2022-11-27T00:50:02.586Z,0.00
2022-11-27T00:51:02.621Z,0.00
2022-11-27T00:53:02.703Z,0.00
2022-11-27T00:54:02.697Z,0.00
2022-11-27T00:55:02.728Z,0.00
2022-11-27T00:57:03.054Z,0.00
2022-11-27T00:59:02.866Z,0.00
2022-11-27T01:00:02.869Z,0.00
2022-11-27T01:01:02.897Z,0.00
2022-11-27T01:03:03.068Z,0.00
2022-11-27T01:04:02.977Z,0.00
2022-11-27T01:05:03.011Z,0.00
2022-11-27T01:06:03.034Z,0.00
2022-11-27T01:07:03.061Z,0.00
2022-11-27T01:08:03.085Z,0.00
2022-11-27T01:09:03.115Z,0.00
2022-11-27T01:10:03.141Z,0.00
2022-11-27T01:11:03.174Z,0.00
2022-11-27T01:12:03.198Z,0.00
2022-11-27T01:13:03.248Z,0.00
2022-11-27T01:14:03.249Z,0.00
2022-11-27T01:15:03.287Z,0.00
2022-11-27T01:16:03.650Z,0.00
2022-11-27T01:17:03.337Z,0.00
2022-11-27T01:18:03.362Z,0.00
2022-11-27T01:20:03.433Z,0.00
2022-11-27T01:21:03.461Z,0.00
2022-11-27T01:22:03.479Z,0.00
2022-11-27T01:23:03.500Z,0.00
2022-11-27T01:24:03.536Z,0.00
2022-11-27T01:25:03.564Z,0.00
2022-11-27T01:26:03.584Z,0.00
2022-11-27T01:27:03.613Z,0.00
2022-11-27T01:28:03.645Z,0.00
2022-11-27T01:29:03.943Z,0.00
2022-11-27T01:30:03.699Z,0.00
2022-11-27T01:31:03.780Z,0.00
2022-11-27T01:33:03.780Z,0.00
2022-11-27T01:34:03.812Z,0.00
2022-11-27T01:35:04.092Z,0.00
2022-11-27T01:37:03.889Z,0.00
2022-11-27T01:38:03.926Z,0.00
2022-11-27T01:39:03.945Z,0.00
2022-11-27T01:40:03.978Z,0.00
2022-11-27T01:41:04.003Z,0.00
2022-11-27T01:42:04.032Z,0.00
2022-11-27T01:44:04.090Z,0.00
2022-11-27T01:45:04.136Z,0.00
2022-11-27T01:46:04.174Z,0.00
2022-11-27T01:47:04.189Z,0.00
2022-11-27T01:48:04.295Z,0.00
2022-11-27T01:50:04.276Z,0.00
2022-11-27T01:51:04.275Z,0.00
2022-11-27T01:52:04.311Z,0.00
2022-11-27T01:53:04.585Z,0.00
2022-11-27T01:54:04.369Z,0.00
2022-11-27T01:55:04.391Z,0.00
2022-11-27T01:56:04.417Z,0.00
2022-11-27T01:57:04.445Z,0.00
2022-11-27T01:58:04.478Z,0.00
2022-11-27T02:00:04.544Z,0.00
2022-11-27T02:01:04.576Z,0.00
2022-11-27T02:02:04.628Z,0.00
2022-11-27T02:03:04.744Z,0.00
2022-11-27T02:04:04.642Z,0.00
2022-11-27T02:05:04.670Z,0.00
2022-11-27T02:06:04.693Z,0.00
2022-11-27T02:07:04.978Z,0.00
2022-11-27T02:08:04.751Z,0.00
2022-11-27T02:09:04.878Z,0.00
2022-11-27T02:10:04.808Z,0.00
2022-11-27T02:11:04.834Z,0.00
2022-11-27T02:12:04.859Z,0.00
2022-11-27T02:13:04.888Z,0.00
2022-11-27T02:14:05.169Z,0.00
2022-11-27T02:15:04.945Z,0.00
2022-11-27T02:16:05.039Z,0.00
2022-11-27T02:17:04.999Z,0.00
2022-11-27T02:18:05.025Z,0.00
2022-11-27T02:19:05.054Z,0.00
2022-11-27T02:20:05.081Z,0.00
2022-11-27T02:21:05.110Z,0.00
2022-11-27T02:22:05.140Z,0.00
2022-11-27T02:23:05.167Z,0.00
2022-11-27T02:24:05.192Z,0.00
2022-11-27T02:25:05.222Z,0.00
2022-11-27T02:26:05.251Z,0.00
2022-11-27T02:27:05.375Z,0.00
2022-11-27T02:28:05.306Z,0.00
2022-11-27T02:29:05.380Z,0.00
2022-11-27T02:30:05.357Z,0.00
2022-11-27T02:31:05.428Z,0.00
2022-11-27T02:32:05.415Z,0.00
2022-11-27T02:33:05.442Z,0.00
2022-11-27T02:34:05.471Z,0.00
2022-11-27T02:35:05.501Z,0.00
2022-11-27T02:36:05.524Z,0.00
2022-11-27T02:37:05.558Z,0.00
2022-11-27T02:38:05.583Z,0.00
2022-11-27T02:39:05.858Z,0.00
2022-11-27T02:40:05.648Z,0.00
2022-11-27T02:41:05.666Z,0.00
2022-11-27T02:42:05.804Z,0.00
2022-11-27T02:43:05.716Z,0.00
2022-11-27T02:44:05.747Z,0.00
2022-11-27T02:45:06.030Z,0.00
2022-11-27T02:46:05.859Z,0.00
2022-11-27T02:47:05.828Z,0.00
2022-11-27T02:48:05.863Z,0.00
2022-11-27T02:49:05.882Z,0.00
2022-11-27T02:50:05.936Z,0.00
2022-11-27T02:51:05.936Z,0.00
2022-11-27T02:52:05.970Z,0.00
2022-11-27T02:53:05.991Z,0.00
2022-11-27T02:54:06.024Z,0.00
2022-11-27T02:55:06.049Z,0.00
2022-11-27T02:56:06.075Z,0.00
2022-11-27T02:57:06.108Z,0.00
2022-11-27T03:00:06.602Z,0.00
2022-11-27T03:01:06.212Z,0.00
2022-11-27T03:02:06.300Z,0.00
2022-11-27T03:03:06.344Z,0.00
2022-11-27T03:04:06.320Z,0.00
2022-11-27T03:05:06.329Z,0.00
2022-11-27T03:06:06.354Z,0.00
2022-11-27T03:07:06.733Z,0.00
2022-11-27T03:08:06.411Z,0.00
2022-11-27T03:09:06.433Z,0.00
2022-11-27T03:10:06.464Z,0.00
2022-11-27T03:11:06.495Z,0.00
2022-11-27T03:12:06.519Z,0.00
2022-11-27T03:13:06.547Z,0.00
2022-11-27T03:14:06.578Z,0.00
2022-11-27T03:15:06.605Z,0.00
2022-11-27T03:16:06.798Z,0.00
2022-11-27T03:17:06.656Z,0.00
2022-11-27T03:18:06.691Z,0.00
2022-11-27T03:19:06.713Z,0.00
2022-11-27T03:20:07.046Z,0.00
2022-11-27T03:21:06.768Z,0.00
2022-11-27T03:22:06.799Z,0.00
2022-11-27T03:24:06.850Z,0.00
2022-11-27T03:25:06.881Z,0.00
2022-11-27T03:26:06.914Z,0.00
2022-11-27T03:27:06.936Z,0.00
2022-11-27T03:28:06.960Z,0.00
2022-11-27T03:29:06.990Z,0.00
2022-11-27T03:30:07.025Z,0.00
2022-11-27T03:31:07.071Z,0.00
2022-11-27T03:32:07.208Z,0.00
2022-11-27T03:33:07.399Z,0.00
2022-11-27T03:34:07.127Z,0.00
2022-11-27T03:35:07.160Z,0.00
2022-11-27T03:36:07.181Z,0.00
2022-11-27T03:37:07.217Z,0.00
2022-11-27T03:39:07.267Z,0.00
2022-11-27T03:40:07.594Z,0.00
2022-11-27T03:41:07.321Z,0.00
2022-11-27T03:42:07.355Z,0.00
2022-11-27T03:43:07.371Z,0.00
2022-11-27T03:44:07.402Z,0.00
2022-11-27T03:45:07.431Z,0.00
2022-11-27T03:46:07.756Z,0.00
2022-11-27T03:47:07.547Z,0.00
2022-11-27T03:48:07.635Z,0.00
2022-11-27T03:49:07.536Z,0.00
2022-11-27T03:50:07.578Z,0.00
2022-11-27T03:51:07.599Z,0.00
2022-11-27T03:52:07.923Z,0.00
2022-11-27T03:53:07.655Z,0.00
2022-11-27T03:54:07.677Z,0.00
2022-11-27T03:55:07.702Z,0.00
2022-11-27T03:56:10.203Z,0.00
2022-11-27T03:57:07.759Z,0.00
2022-11-27T03:58:08.090Z,0.00
2022-11-27T03:59:07.814Z,0.00
2022-11-27T04:00:07.847Z,0.00
2022-11-27T04:01:07.881Z,0.00
2022-11-27T04:02:07.948Z,0.00
2022-11-27T04:03:07.924Z,0.00
2022-11-27T04:04:08.151Z,0.00
2022-11-27T04:05:08.239Z,0.00
2022-11-27T04:06:08.008Z,0.00
2022-11-27T04:07:08.035Z,0.00
2022-11-27T04:08:08.066Z,0.00
2022-11-27T04:09:08.092Z,0.00
2022-11-27T04:10:08.118Z,0.00
2022-11-27T04:11:08.143Z,0.00
2022-11-27T04:12:08.578Z,0.00
2022-11-27T04:13:08.202Z,0.00
2022-11-27T04:14:08.229Z,0.00
2022-11-27T04:15:08.258Z,0.00
2022-11-27T04:16:08.329Z,0.00
2022-11-27T04:17:08.316Z,0.00
2022-11-27T04:18:08.341Z,0.00
2022-11-27T04:19:08.614Z,0.00
2022-11-27T04:20:13.616Z,0.00
2022-11-27T04:21:08.533Z,0.00
2022-11-27T04:22:08.457Z,0.00
2022-11-27T04:23:08.474Z,0.00
2022-11-27T04:24:08.510Z,0.00
2022-11-27T04:25:08.531Z,0.00
2022-11-27T04:26:08.864Z,0.00
2022-11-27T04:27:08.590Z,0.00
2022-11-27T04:28:08.619Z,0.00
2022-11-27T04:29:08.641Z,0.00
2022-11-27T04:30:08.675Z,0.00
2022-11-27T04:31:08.788Z,0.00
2022-11-27T04:33:08.759Z,0.00
2022-11-27T04:34:09.108Z,0.00
2022-11-27T04:35:08.811Z,0.00
2022-11-27T04:37:09.293Z,0.00
2022-11-27T04:39:08.921Z,0.00
2022-11-27T04:40:08.942Z,0.00
2022-11-27T04:41:08.975Z,0.00
2022-11-27T04:42:09.007Z,0.00
2022-11-27T04:43:09.033Z,0.00
2022-11-27T04:44:09.058Z,0.00
2022-11-27T04:45:09.084Z,0.00
2022-11-27T04:46:09.166Z,0.00
2022-11-27T04:48:09.167Z,0.00
2022-11-27T04:49:09.191Z,0.00
2022-11-27T04:50:09.223Z,0.00
2022-11-27T04:51:09.245Z,0.00
2022-11-27T04:52:09.276Z,0.00
2022-11-27T04:53:09.417Z,0.00
2022-11-27T04:55:09.357Z,0.00
2022-11-27T04:56:09.389Z,0.00
2022-11-27T04:57:09.427Z,0.00
2022-11-27T04:58:09.440Z,0.00
2022-11-27T04:59:09.727Z,0.00
2022-11-27T05:00:09.495Z,0.00
2022-11-27T05:01:09.660Z,0.00
2022-11-27T05:02:09.557Z,0.00
2022-11-27T05:03:09.622Z,0.00
2022-11-27T05:04:09.608Z,0.00
2022-11-27T05:05:09.632Z,0.00
2022-11-27T05:06:09.661Z,0.00
2022-11-27T05:07:09.829Z,0.00
2022-11-27T05:08:09.717Z,0.00
2022-11-27T05:09:09.859Z,0.00
2022-11-27T05:10:09.770Z,0.00
2022-11-27T05:11:10.110Z,0.00
2022-11-27T05:12:09.830Z,0.00
2022-11-27T05:13:09.853Z,0.00
2022-11-27T05:14:09.981Z,0.00
2022-11-27T05:15:09.911Z,0.00
2022-11-27T05:16:09.998Z,0.00
2022-11-27T05:17:09.966Z,0.00
2022-11-27T05:18:10.240Z,0.00
2022-11-27T05:19:10.022Z,0.00
2022-11-27T05:20:10.044Z,0.00
2022-11-27T05:21:10.080Z,0.00
2022-11-27T05:22:10.106Z,0.00
2022-11-27T05:23:10.129Z,0.00
2022-11-27T05:24:10.258Z,0.00
2022-11-27T05:25:10.649Z,0.00
2022-11-27T05:26:10.216Z,0.00
2022-11-27T05:27:10.245Z,0.00
2022-11-27T05:28:10.269Z,0.00
2022-11-27T05:29:10.298Z,0.00
2022-11-27T05:30:10.322Z,0.00
2022-11-27T05:31:10.418Z,0.00
2022-11-27T05:32:10.378Z,0.00
2022-11-27T05:33:10.406Z,0.00
2022-11-27T05:34:10.447Z,0.00
2022-11-27T05:35:10.463Z,0.00
2022-11-27T05:36:10.486Z,0.00
2022-11-27T05:37:12.893Z,0.00
2022-11-27T05:38:10.842Z,0.00
2022-11-27T05:39:10.594Z,0.00
2022-11-27T05:41:10.741Z,0.00
2022-11-27T05:42:10.665Z,0.00
2022-11-27T05:43:10.683Z,0.00
2022-11-27T05:44:10.709Z,0.00
2022-11-27T05:45:10.732Z,0.00
2022-11-27T05:46:10.808Z,0.00
2022-11-27T05:47:10.791Z,0.00
2022-11-27T05:48:10.820Z,0.00
2022-11-27T05:49:10.846Z,0.00
2022-11-27T05:50:10.873Z,0.00
2022-11-27T05:51:11.202Z,0.00
2022-11-27T05:52:10.930Z,0.00
2022-11-27T05:53:10.952Z,0.00
2022-11-27T05:54:10.989Z,0.00
2022-11-27T05:55:11.010Z,0.00
2022-11-27T05:56:11.042Z,0.00
2022-11-27T05:57:11.179Z,0.00
2022-11-27T05:58:11.093Z,0.00
2022-11-27T05:59:11.122Z,0.00
2022-11-27T06:00:11.151Z,0.00
2022-11-27T06:01:11.188Z,0.00
2022-11-27T06:02:16.467Z,0.00
2022-11-27T06:03:11.258Z,0.00
2022-11-27T06:04:11.562Z,0.00
2022-11-27T06:06:11.314Z,0.00
2022-11-27T06:07:11.387Z,0.00
2022-11-27T06:08:11.369Z,0.00
2022-11-27T06:09:13.422Z,0.00
2022-11-27T06:10:11.424Z,0.00
2022-11-27T06:11:11.454Z,0.00
2022-11-27T06:12:11.482Z,0.00
2022-11-27T06:14:11.650Z,0.00
2022-11-27T06:15:11.560Z,0.00
2022-11-27T06:16:11.664Z,0.00
2022-11-27T06:17:11.615Z,0.00
2022-11-27T06:18:11.655Z,0.00
2022-11-27T06:19:11.671Z,0.00
2022-11-27T06:20:11.706Z,0.00
2022-11-27T06:21:11.736Z,0.00
2022-11-27T06:22:11.754Z,0.00
2022-11-27T06:23:11.797Z,0.00
2022-11-27T06:24:11.977Z,0.00
2022-11-27T06:25:12.039Z,0.00
2022-11-27T06:26:11.949Z,0.00
2022-11-27T06:27:11.987Z,0.00
2022-11-27T06:29:11.952Z,0.00
2022-11-27T06:30:17.275Z,0.00
2022-11-27T06:31:18.460Z,0.00
2022-11-27T06:32:12.398Z,0.00
2022-11-27T06:34:12.134Z,0.00
2022-11-27T06:35:12.131Z,0.00
2022-11-27T06:36:12.164Z,0.00
2022-11-27T06:37:13.549Z,0.00
2022-11-27T06:38:12.193Z,0.00
2022-11-27T06:39:12.224Z,4.00
2022-11-27T06:40:12.355Z,0.00
2022-11-27T06:41:12.573Z,0.00
2022-11-27T06:42:12.305Z,4.00
2022-11-27T06:43:12.330Z,4.00
2022-11-27T06:44:12.361Z,4.00
2022-11-27T06:45:12.385Z,4.00
2022-11-27T06:46:12.541Z,4.00
2022-11-27T06:47:12.440Z,4.00
2022-11-27T06:48:12.588Z,8.00
2022-11-27T06:49:12.499Z,8.00
2022-11-27T06:50:12.526Z,12.00
2022-11-27T06:51:12.555Z,8.00
2022-11-27T06:53:12.610Z,16.00
2022-11-27T06:54:12.633Z,16.00
2022-11-27T06:55:12.667Z,20.00
2022-11-27T06:56:12.698Z,20.00
2022-11-27T06:57:12.716Z,24.00
2022-11-27T06:58:13.047Z,32.00
2022-11-27T06:59:12.779Z,32.00
2022-11-27T07:00:13.055Z,36.00
2022-11-27T07:01:12.897Z,40.00
2022-11-27T07:02:13.019Z,44.00
2022-11-27T07:03:12.880Z,48.00
2022-11-27T07:04:13.025Z,48.00
2022-11-27T07:05:12.949Z,56.00
2022-11-27T07:06:13.372Z,60.00
2022-11-27T07:07:13.059Z,64.00
2022-11-27T07:08:13.021Z,68.00
2022-11-27T07:09:13.048Z,72.00
2022-11-27T07:10:13.078Z,76.00
2022-11-27T07:11:13.104Z,80.00
2022-11-27T07:12:13.133Z,88.00
2022-11-27T07:13:13.159Z,88.00
2022-11-27T07:14:13.192Z,92.00
2022-11-27T07:15:13.214Z,100.00
2022-11-27T07:16:13.429Z,108.00
2022-11-27T07:17:14.325Z,120.00
2022-11-27T07:18:13.358Z,128.00
2022-11-27T07:19:13.325Z,140.00
2022-11-27T07:20:13.468Z,140.00
2022-11-27T07:21:13.379Z,144.00
2022-11-27T07:22:13.409Z,144.00
2022-11-27T07:23:13.448Z,148.00
2022-11-27T07:24:13.467Z,144.00
2022-11-27T07:25:13.894Z,144.00
2022-11-27T07:26:13.520Z,140.00
2022-11-27T07:27:13.651Z,140.00
2022-11-27T07:28:18.547Z,140.00
2022-11-27T07:29:13.599Z,140.00
2022-11-27T07:30:13.634Z,144.00
2022-11-27T07:31:13.820Z,152.00
2022-11-27T07:32:13.682Z,160.00
2022-11-27T07:33:13.707Z,160.00
2022-11-27T07:34:18.386Z,164.00
2022-11-27T07:35:13.768Z,172.00
2022-11-27T07:36:13.909Z,172.00
2022-11-27T07:37:14.121Z,176.00
2022-11-27T07:38:13.848Z,184.00
2022-11-27T07:39:13.872Z,192.00
2022-11-27T07:41:13.934Z,208.00
2022-11-27T07:42:39.743Z,220.00
2022-11-27T07:43:13.985Z,236.00
2022-11-27T07:44:14.013Z,256.00
2022-11-27T07:45:14.038Z,276.00
2022-11-27T07:46:14.198Z,296.00
2022-11-27T07:47:14.123Z,324.00
2022-11-27T07:48:14.126Z,348.00
2022-11-27T07:49:14.153Z,372.00
2022-11-27T07:50:14.176Z,392.00
2022-11-27T07:52:14.356Z,428.00
2022-11-27T07:53:14.260Z,440.00
2022-11-27T07:54:14.289Z,456.00
2022-11-27T07:55:14.622Z,476.00
2022-11-27T07:56:14.346Z,492.00
2022-11-27T07:57:14.372Z,504.00
2022-11-27T07:58:14.395Z,512.00
2022-11-27T07:59:14.427Z,524.00
2022-11-27T08:01:14.549Z,536.00
2022-11-27T08:02:14.509Z,544.00
2022-11-27T08:03:14.538Z,544.00
2022-11-27T08:04:14.671Z,540.00
2022-11-27T08:05:14.667Z,532.00
2022-11-27T08:06:14.631Z,532.00
2022-11-27T08:07:14.742Z,524.00
2022-11-27T08:08:15.093Z,528.00
2022-11-27T08:09:14.704Z,536.00
2022-11-27T08:10:14.730Z,556.00
2022-11-27T08:11:14.765Z,580.00
2022-11-27T08:12:14.786Z,620.00
2022-11-27T08:13:14.838Z,668.00
2022-11-27T08:14:15.159Z,712.00
2022-11-27T08:15:15.022Z,760.00
2022-11-27T08:16:14.990Z,816.00
2022-11-27T08:17:14.924Z,876.00
2022-11-27T08:18:14.950Z,948.00
2022-11-27T08:19:14.983Z,1024.00
2022-11-27T08:20:15.309Z,1104.00
2022-11-27T08:21:15.036Z,1188.00
2022-11-27T08:22:15.061Z,1280.00
2022-11-27T08:23:15.285Z,1372.00
2022-11-27T08:24:15.239Z,1464.00
2022-11-27T08:26:15.425Z,1620.00
2022-11-27T08:27:15.316Z,1688.00
2022-11-27T08:28:15.277Z,1768.00
2022-11-27T08:30:15.389Z,1860.00
2022-11-27T08:31:15.388Z,1860.00
2022-11-27T08:32:15.335Z,1848.00
2022-11-27T08:33:15.670Z,1804.00
2022-11-27T08:34:15.394Z,1720.00
2022-11-27T08:35:15.506Z,1644.00
2022-11-27T08:36:18.340Z,1592.00
2022-11-27T08:37:15.576Z,1568.00
2022-11-27T08:38:15.501Z,1560.00
2022-11-27T08:39:15.731Z,1572.00
2022-11-27T08:40:15.674Z,1600.00
2022-11-27T08:41:15.594Z,1620.00
2022-11-27T08:42:15.615Z,1612.00
2022-11-27T08:43:15.695Z,1584.00
2022-11-27T08:45:16.004Z,1524.00
2022-11-27T08:46:15.826Z,1488.00
2022-11-27T08:47:15.776Z,1452.00
2022-11-27T08:48:15.782Z,1400.00
2022-11-27T08:49:15.827Z,1352.00
2022-11-27T08:50:15.841Z,1312.00
2022-11-27T08:51:15.871Z,1288.00
2022-11-27T08:52:16.191Z,1280.00
2022-11-27T08:53:15.919Z,1296.00
2022-11-27T08:54:15.952Z,1328.00
2022-11-27T08:55:15.978Z,1376.00
2022-11-27T08:56:16.126Z,1432.00
2022-11-27T08:57:16.040Z,1476.00
2022-11-27T08:58:16.115Z,1508.00
2022-11-27T08:59:16.086Z,1516.00
2022-11-27T09:00:16.121Z,1508.00
2022-11-27T09:01:16.245Z,1488.00
2022-11-27T09:02:16.176Z,1464.00
2022-11-27T09:03:16.199Z,1440.00
2022-11-27T09:04:16.579Z,1424.00
2022-11-27T09:05:16.359Z,1420.00
2022-11-27T09:06:16.282Z,1428.00
2022-11-27T09:07:16.332Z,1444.00
2022-11-27T09:08:16.345Z,1472.00
2022-11-27T09:09:16.367Z,1508.00
2022-11-27T09:10:16.647Z,1552.00
2022-11-27T09:12:16.568Z,1648.00
2022-11-27T09:13:16.475Z,1700.00
2022-11-27T09:14:16.503Z,1760.00
2022-11-27T09:15:16.539Z,1824.00
2022-11-27T09:16:16.610Z,1880.00
2022-11-27T09:17:16.893Z,1932.00
2022-11-27T09:18:16.615Z,1980.00
2022-11-27T09:19:16.645Z,2020.00
2022-11-27T09:21:16.698Z,2096.00
2022-11-27T09:22:16.727Z,2128.00
2022-11-27T09:23:16.755Z,2156.00
2022-11-27T09:24:17.089Z,2184.00
2022-11-27T09:25:16.809Z,2212.00
2022-11-27T09:26:16.843Z,2240.00
2022-11-27T09:27:16.866Z,2268.00
2022-11-27T09:28:17.049Z,2296.00
2022-11-27T09:29:16.926Z,2320.00
2022-11-27T09:30:16.956Z,2348.00
2022-11-27T09:31:16.980Z,2372.00
2022-11-27T09:32:17.092Z,2396.00
2022-11-27T09:33:17.036Z,2420.00
2022-11-27T09:34:17.060Z,2440.00
2022-11-27T09:35:17.155Z,2456.00
2022-11-27T09:36:17.119Z,2460.00
2022-11-27T09:37:17.405Z,2464.00
2022-11-27T09:38:17.177Z,2456.00
2022-11-27T09:39:17.241Z,2440.00
2022-11-27T09:40:17.233Z,2424.00
2022-11-27T09:41:17.260Z,2412.00
2022-11-27T09:42:17.300Z,2392.00
2022-11-27T09:43:17.314Z,2372.00
2022-11-27T09:44:17.757Z,2340.00
2022-11-27T09:45:17.370Z,2308.00
2022-11-27T09:47:17.431Z,2224.00
2022-11-27T09:48:17.451Z,2184.00
2022-11-27T09:49:17.500Z,2148.00
2022-11-27T09:50:17.509Z,2120.00
2022-11-27T09:51:17.853Z,2088.00
2022-11-27T09:52:17.565Z,2052.00
2022-11-27T09:53:17.595Z,2016.00
2022-11-27T09:54:17.623Z,1984.00
2022-11-27T09:55:17.656Z,1956.00
2022-11-27T09:56:17.685Z,1936.00
2022-11-27T09:57:17.705Z,1920.00
2022-11-27T09:58:18.008Z,1908.00
2022-11-27T09:59:17.763Z,1908.00
2022-11-27T10:00:17.908Z,1912.00
2022-11-27T10:01:17.882Z,1920.00
2022-11-27T10:02:18.216Z,1932.00
2022-11-27T10:03:17.939Z,1936.00
2022-11-27T10:04:18.633Z,1944.00
2022-11-27T10:05:18.557Z,1944.00
2022-11-27T10:06:17.958Z,1936.00
2022-11-27T10:08:18.017Z,1904.00
2022-11-27T10:09:18.042Z,1880.00
2022-11-27T10:10:18.075Z,1864.00
2022-11-27T10:11:18.099Z,1856.00
2022-11-27T10:12:18.129Z,1852.00
2022-11-27T10:13:18.155Z,1856.00
2022-11-27T10:15:18.211Z,1892.00
2022-11-27T10:16:18.437Z,1908.00
2022-11-27T10:17:18.296Z,1920.00
2022-11-27T10:18:18.606Z,1912.00
2022-11-27T10:19:18.324Z,1880.00
2022-11-27T10:20:18.351Z,1840.00
2022-11-27T10:21:18.387Z,1812.00
2022-11-27T10:22:21.123Z,1792.00
2022-11-27T10:23:18.442Z,1772.00
2022-11-27T10:25:18.511Z,1740.00
2022-11-27T10:26:18.609Z,1740.00
2022-11-27T10:27:18.551Z,1760.00
2022-11-27T10:28:18.604Z,1776.00
2022-11-27T10:29:18.605Z,1764.00
2022-11-27T10:30:18.948Z,1760.00
2022-11-27T10:31:18.712Z,1760.00
2022-11-27T10:32:52.787Z,1764.00
2022-11-27T10:33:18.724Z,1784.00
2022-11-27T10:34:18.784Z,1824.00
2022-11-27T10:35:18.781Z,1836.00
2022-11-27T10:36:18.822Z,1844.00
2022-11-27T10:37:18.848Z,1860.00
2022-11-27T10:38:18.862Z,1864.00
2022-11-27T10:39:18.888Z,1876.00
2022-11-27T10:40:18.992Z,1880.00
2022-11-27T10:41:47.789Z,1900.00
2022-11-27T10:42:18.976Z,1896.00
2022-11-27T10:43:19.006Z,1908.00
2022-11-27T10:45:19.072Z,1940.00
2022-11-27T10:46:19.174Z,1928.00
2022-11-27T10:47:19.128Z,1932.00
2022-11-27T10:48:19.285Z,1948.00
2022-11-27T10:49:19.485Z,1968.00
2022-11-27T10:50:19.319Z,1956.00
2022-11-27T10:52:19.357Z,1928.00
2022-11-27T10:53:19.285Z,1912.00
2022-11-27T10:54:19.315Z,1892.00
2022-11-27T10:57:19.828Z,1872.00
2022-11-27T10:58:19.441Z,1864.00
2022-11-27T11:00:19.544Z,1860.00
2022-11-27T11:01:19.607Z,1888.00
2022-11-27T11:02:19.586Z,1924.00
2022-11-27T11:03:19.725Z,1968.00
2022-11-27T11:04:37.002Z,1988.00
2022-11-27T11:05:56.899Z,2000.00
2022-11-27T11:06:22.014Z,2016.00
2022-11-27T11:07:19.729Z,2028.00
2022-11-27T11:08:19.724Z,2000.00
2022-11-27T11:09:19.739Z,1952.00
2022-11-27T11:10:20.065Z,1908.00
2022-11-27T11:11:19.803Z,1860.00
2022-11-27T11:12:19.823Z,1844.00
2022-11-27T11:13:19.847Z,1836.00
2022-11-27T11:14:19.903Z,1832.00
2022-11-27T11:15:19.926Z,1824.00
2022-11-27T11:16:24.159Z,1812.00
2022-11-27T11:17:20.000Z,1796.00
2022-11-27T11:18:20.087Z,1772.00
2022-11-27T11:19:20.304Z,1776.00
2022-11-27T11:20:25.450Z,1748.00
2022-11-27T11:21:20.200Z,1724.00
2022-11-27T11:22:20.102Z,1704.00
2022-11-27T11:23:20.438Z,1680.00
2022-11-27T11:24:20.167Z,1632.00
2022-11-27T11:26:20.227Z,1516.00
2022-11-27T11:27:20.269Z,1468.00
2022-11-27T11:29:20.561Z,1388.00
2022-11-27T11:30:20.361Z,1328.00
2022-11-27T11:31:20.397Z,1288.00
2022-11-27T11:32:20.386Z,1272.00
2022-11-27T11:33:20.430Z,1276.00
2022-11-27T11:34:20.464Z,1300.00
2022-11-27T11:35:20.469Z,1316.00
2022-11-27T11:36:20.505Z,1372.00
2022-11-27T11:37:20.661Z,1416.00
2022-11-27T11:38:20.562Z,1440.00
2022-11-27T11:39:20.582Z,1452.00
2022-11-27T11:40:20.616Z,1452.00
2022-11-27T11:41:20.895Z,1448.00
2022-11-27T11:43:20.702Z,1444.00
2022-11-27T11:44:20.729Z,1464.00
2022-11-27T11:45:20.860Z,1484.00
2022-11-27T11:47:20.809Z,1564.00
2022-11-27T11:48:21.149Z,1612.00
2022-11-27T11:49:20.884Z,1660.00
2022-11-27T11:51:24.991Z,1776.00
2022-11-27T11:52:21.117Z,1844.00
2022-11-27T11:53:21.120Z,1920.00
2022-11-27T11:54:21.029Z,2016.00
2022-11-27T11:55:21.037Z,2108.00
2022-11-27T11:56:21.066Z,2196.00
2022-11-27T11:59:21.159Z,2452.00
2022-11-27T12:00:23.953Z,2540.00
2022-11-27T12:01:28.572Z,2604.00
2022-11-27T12:02:21.293Z,2608.00
2022-11-27T12:03:21.265Z,2552.00
2022-11-27T12:04:21.383Z,2460.00
2022-11-27T12:05:21.321Z,2384.00
2022-11-27T12:06:21.344Z,2324.00
2022-11-27T12:07:21.399Z,2264.00
2022-11-27T12:08:21.403Z,2188.00
2022-11-27T12:09:21.551Z,2100.00
2022-11-27T12:10:21.477Z,2004.00
2022-11-27T12:11:21.496Z,1908.00
2022-11-27T12:12:21.521Z,1832.00
2022-11-27T12:13:21.546Z,1780.00
2022-11-27T12:14:21.573Z,1736.00
2022-11-27T12:15:21.604Z,1704.00
2022-11-27T12:16:21.664Z,1688.00
2022-11-27T12:17:21.663Z,1688.00
2022-11-27T12:18:21.687Z,1680.00
2022-11-27T12:19:21.718Z,1696.00
2022-11-27T12:20:22.068Z,1720.00
2022-11-27T12:21:21.773Z,1748.00
2022-11-27T12:22:21.802Z,1776.00
2022-11-27T12:23:21.833Z,1796.00
2022-11-27T12:24:21.856Z,1820.00
2022-11-27T12:25:22.011Z,1840.00
2022-11-27T12:26:21.918Z,1860.00
2022-11-27T12:27:21.954Z,1856.00
2022-11-27T12:28:21.975Z,1852.00
2022-11-27T12:29:22.015Z,1848.00
2022-11-27T12:30:22.029Z,1856.00
2022-11-27T12:31:22.109Z,1860.00
2022-11-27T12:32:22.190Z,1872.00
2022-11-27T12:33:22.119Z,1904.00
2022-11-27T12:34:22.144Z,1924.00
2022-11-27T12:35:22.172Z,1932.00
2022-11-27T12:36:22.203Z,1916.00
2022-11-27T12:39:22.593Z,1840.00
2022-11-27T12:40:22.314Z,1856.00
2022-11-27T12:41:22.459Z,1892.00
2022-11-27T12:42:22.478Z,1924.00
2022-11-27T12:43:22.405Z,1944.00
2022-11-27T12:44:22.427Z,1944.00
2022-11-27T12:45:22.465Z,1920.00
2022-11-27T12:46:22.883Z,1892.00
2022-11-27T12:47:22.517Z,1888.00
2022-11-27T12:48:22.541Z,1908.00
2022-11-27T12:49:22.571Z,1936.00
2022-11-27T12:50:22.604Z,1944.00
2022-11-27T12:51:22.631Z,1924.00
2022-11-27T12:52:22.665Z,1904.00
2022-11-27T12:53:24.995Z,1876.00
2022-11-27T12:54:22.716Z,1844.00
2022-11-27T12:55:22.741Z,1808.00
2022-11-27T12:56:22.773Z,1748.00
2022-11-27T12:58:22.936Z,1684.00
2022-11-27T12:59:22.857Z,1704.00
2022-11-27T13:00:22.887Z,1748.00
2022-11-27T13:01:26.517Z,1772.00
2022-11-27T13:02:23.000Z,1776.00
2022-11-27T13:03:22.967Z,1752.00
2022-11-27T13:04:22.996Z,1712.00
2022-11-27T13:05:23.023Z,1680.00
2022-11-27T13:07:23.116Z,1676.00
2022-11-27T13:08:23.116Z,1692.00
2022-11-27T13:09:23.139Z,1772.00
2022-11-27T13:10:23.165Z,1896.00
2022-11-27T13:11:23.198Z,2008.00
2022-11-27T13:12:23.225Z,2064.00
2022-11-27T13:13:23.252Z,2064.00
2022-11-27T13:14:23.395Z,2056.00
2022-11-27T13:15:23.319Z,2024.00
2022-11-27T13:16:23.419Z,1972.00
2022-11-27T13:17:23.368Z,1908.00
2022-11-27T13:18:23.398Z,1840.00
2022-11-27T13:19:23.424Z,1772.00
2022-11-27T13:20:23.556Z,1692.00
2022-11-27T13:21:23.480Z,1640.00
2022-11-27T13:22:23.507Z,1620.00
2022-11-27T13:23:23.540Z,1604.00
2022-11-27T13:24:23.573Z,1584.00
2022-11-27T13:25:23.599Z,1568.00
2022-11-27T13:27:23.651Z,1568.00
2022-11-27T13:28:23.681Z,1524.00
2022-11-27T13:29:23.706Z,1436.00
2022-11-27T13:30:24.118Z,1356.00
2022-11-27T13:31:23.858Z,1284.00
2022-11-27T13:34:23.852Z,1212.00
2022-11-27T13:35:23.887Z,1220.00
2022-11-27T13:36:23.914Z,1192.00
2022-11-27T13:37:24.190Z,1148.00
2022-11-27T13:38:23.974Z,1112.00
2022-11-27T13:39:23.993Z,1088.00
2022-11-27T13:40:24.032Z,1064.00
2022-11-27T13:41:24.055Z,1056.00
2022-11-27T13:42:24.080Z,1040.00
2022-11-27T13:44:24.388Z,900.00
2022-11-27T13:45:24.169Z,772.00
2022-11-27T13:46:24.357Z,692.00